createdAt,value
2023-07-30T00:01:01.006Z,100.00
2023-07-30T00:03:40.726Z,100.00
2023-07-30T00:06:07.401Z,100.00
2023-07-30T00:08:33.832Z,100.00
2023-07-30T00:11:00.361Z,100.00
2023-07-30T00:13:26.923Z,100.00
2023-07-30T00:15:56.451Z,100.00
2023-07-30T00:18:22.913Z,100.00
2023-07-30T00:20:49.450Z,100.00
2023-07-30T00:23:15.812Z,100.00
2023-07-30T00:25:42.171Z,100.00
2023-07-30T00:28:08.654Z,100.00
2023-07-30T00:30:35.025Z,99.61
2023-07-30T00:33:01.525Z,98.98
2023-07-30T00:35:28.233Z,99.52
2023-07-30T00:37:54.612Z,100.00
2023-07-30T00:40:21.012Z,100.00
2023-07-30T00:42:47.506Z,100.00
2023-07-30T00:45:13.873Z,100.00
2023-07-30T00:47:41.639Z,100.00
2023-07-30T00:50:09.394Z,100.00
2023-07-30T00:52:36.141Z,100.00
2023-07-30T00:55:08.252Z,100.00
2023-07-30T00:57:37.525Z,100.00
2023-07-30T01:00:09.809Z,100.00
2023-07-30T01:02:37.627Z,100.00
2023-07-30T01:05:04.964Z,100.00
2023-07-30T01:07:32.197Z,100.00
2023-07-30T01:09:59.654Z,100.00
2023-07-30T01:12:27.572Z,100.00
2023-07-30T01:14:56.157Z,100.00
2023-07-30T01:17:23.612Z,100.00
2023-07-30T01:19:55.543Z,100.00
2023-07-30T01:22:22.554Z,100.00
2023-07-30T01:24:49.858Z,100.00
2023-07-30T01:27:39.550Z,100.00
2023-07-30T01:30:11.865Z,100.00
2023-07-30T01:32:38.930Z,100.00
2023-07-30T01:35:08.730Z,100.00
2023-07-30T01:37:36.244Z,100.00
2023-07-30T01:40:03.134Z,100.00
2023-07-30T01:42:32.597Z,100.00
2023-07-30T01:44:59.107Z,100.00
2023-07-30T01:47:25.825Z,100.00
2023-07-30T01:49:52.242Z,100.00
2023-07-30T01:52:18.700Z,100.00
2023-07-30T01:54:45.721Z,100.00
2023-07-30T01:57:13.790Z,100.00
2023-07-30T01:59:40.307Z,100.00
2023-07-30T02:02:08.095Z,100.00
2023-07-30T02:04:34.878Z,100.00
2023-07-30T02:07:01.484Z,100.00
2023-07-30T02:09:27.861Z,100.00
2023-07-30T02:11:54.560Z,100.00
2023-07-30T02:14:21.047Z,100.00
2023-07-30T02:16:47.396Z,100.00
2023-07-30T02:19:14.030Z,100.00
2023-07-30T02:21:43.797Z,100.00
2023-07-30T02:24:12.424Z,100.00
2023-07-30T02:26:39.821Z,100.00
2023-07-30T02:29:06.570Z,100.00
2023-07-30T02:31:33.294Z,100.00
2023-07-30T02:33:59.866Z,100.00
2023-07-30T02:36:26.240Z,100.00
2023-07-30T02:38:52.604Z,100.00
2023-07-30T02:41:19.064Z,100.00
2023-07-30T02:43:45.412Z,100.00
2023-07-30T02:46:11.831Z,100.00
2023-07-30T02:48:38.696Z,100.00
2023-07-30T02:51:05.047Z,100.00
2023-07-30T02:53:31.390Z,100.00
2023-07-30T02:55:57.824Z,100.00
2023-07-30T02:58:24.201Z,100.00
2023-07-30T03:00:50.623Z,100.00
2023-07-30T03:03:17.918Z,100.00
2023-07-30T03:05:44.393Z,100.00
2023-07-30T03:08:10.853Z,100.00
2023-07-30T03:10:37.704Z,100.00
2023-07-30T03:13:04.177Z,100.00
2023-07-30T03:15:30.613Z,100.00
2023-07-30T03:17:57.113Z,100.00
2023-07-30T03:20:23.508Z,100.00
2023-07-30T03:22:49.862Z,100.00
2023-07-30T03:25:16.370Z,100.00
2023-07-30T03:27:42.746Z,100.00
2023-07-30T03:30:10.180Z,100.00
2023-07-30T03:32:36.584Z,100.00
2023-07-30T03:35:03.109Z,100.00
2023-07-30T03:37:29.565Z,100.00
2023-07-30T03:39:55.982Z,100.00
2023-07-30T03:42:22.365Z,100.00
2023-07-30T03:44:49.024Z,100.00
2023-07-30T03:47:15.487Z,100.00
2023-07-30T03:49:41.858Z,100.00
2023-07-30T03:52:08.254Z,100.00
2023-07-30T03:54:34.666Z,100.00
2023-07-30T03:57:01.547Z,100.00
2023-07-30T03:59:29.575Z,100.00
2023-07-30T04:01:56.294Z,100.00
2023-07-30T04:04:22.651Z,100.00
2023-07-30T04:06:49.042Z,100.00
2023-07-30T04:09:15.461Z,100.00
2023-07-30T04:11:41.815Z,100.00
2023-07-30T04:14:09.890Z,100.00
2023-07-30T04:16:36.584Z,100.00
2023-07-30T04:19:03.052Z,100.00
2023-07-30T04:21:29.396Z,100.00
2023-07-30T04:23:55.878Z,100.00
2023-07-30T04:26:22.221Z,100.00
2023-07-30T04:28:48.705Z,100.00
2023-07-30T04:31:15.146Z,100.00
2023-07-30T04:33:41.541Z,100.00
2023-07-30T04:36:08.915Z,100.00
2023-07-30T04:38:35.325Z,100.00
2023-07-30T04:41:01.806Z,100.00
2023-07-30T04:43:28.252Z,100.00
2023-07-30T04:45:54.711Z,100.00
2023-07-30T04:48:21.185Z,100.00
2023-07-30T04:50:47.568Z,100.00
2023-07-30T04:53:14.061Z,100.00
2023-07-30T04:55:40.440Z,100.00
2023-07-30T04:58:06.842Z,100.00
2023-07-30T05:00:33.325Z,100.00
2023-07-30T05:02:59.802Z,100.00
2023-07-30T05:05:26.276Z,100.00
2023-07-30T05:07:52.675Z,100.00
2023-07-30T05:10:19.340Z,99.71
2023-07-30T05:12:45.801Z,100.00
2023-07-30T05:15:12.170Z,100.00
2023-07-30T05:17:38.566Z,99.48
2023-07-30T05:20:05.868Z,98.95
2023-07-30T05:22:32.250Z,96.35
2023-07-30T05:24:58.705Z,95.64
2023-07-30T05:27:25.214Z,94.82
2023-07-30T05:29:51.640Z,95.62
2023-07-30T05:32:18.015Z,95.93
2023-07-30T05:34:44.472Z,97.09
2023-07-30T05:37:10.819Z,95.74
2023-07-30T05:39:37.280Z,96.59
2023-07-30T05:42:04.076Z,96.87
2023-07-30T05:44:30.481Z,96.85
2023-07-30T05:46:56.867Z,95.52
2023-07-30T05:49:23.416Z,94.09
2023-07-30T05:51:49.844Z,92.76
2023-07-30T05:54:16.252Z,91.68
2023-07-30T05:56:42.659Z,92.16
2023-07-30T05:59:09.060Z,91.75
2023-07-30T06:01:35.520Z,92.29
2023-07-30T06:04:02.169Z,91.69
2023-07-30T06:06:30.380Z,92.47
2023-07-30T06:08:57.237Z,94.06
2023-07-30T06:11:24.031Z,93.20
2023-07-30T06:13:50.447Z,92.15
2023-07-30T06:16:20.313Z,92.11
2023-07-30T06:18:46.887Z,90.57
2023-07-30T06:21:13.338Z,89.77
2023-07-30T06:23:39.843Z,88.40
2023-07-30T06:26:06.185Z,88.60
2023-07-30T06:28:32.653Z,88.36
2023-07-30T06:31:03.242Z,86.73
2023-07-30T06:33:32.777Z,86.90
2023-07-30T06:35:59.889Z,87.11
2023-07-30T06:38:26.938Z,87.88
2023-07-30T06:40:53.408Z,86.84
2023-07-30T06:43:19.927Z,87.83
2023-07-30T06:45:46.373Z,89.55
2023-07-30T06:48:12.728Z,91.21
2023-07-30T06:50:39.238Z,91.53
2023-07-30T06:53:05.630Z,91.77
2023-07-30T06:55:31.998Z,90.63
2023-07-30T06:57:58.490Z,89.70
2023-07-30T07:00:24.926Z,87.46
2023-07-30T07:02:51.670Z,86.14
2023-07-30T07:05:18.222Z,85.59
2023-07-30T07:07:44.681Z,86.60
2023-07-30T07:10:14.435Z,85.52
2023-07-30T07:12:40.942Z,86.22
2023-07-30T07:15:07.813Z,86.92
2023-07-30T07:17:34.274Z,88.80
2023-07-30T07:20:00.719Z,87.18
2023-07-30T07:22:27.131Z,87.14
2023-07-30T07:24:53.774Z,87.31
2023-07-30T07:27:20.292Z,87.50
2023-07-30T07:29:46.757Z,86.83
2023-07-30T07:32:13.134Z,86.41
2023-07-30T07:34:39.523Z,87.28
2023-07-30T07:37:05.973Z,86.23
2023-07-30T07:39:34.377Z,85.31
2023-07-30T07:42:00.931Z,86.54
2023-07-30T07:44:27.403Z,86.10
2023-07-30T07:46:53.974Z,85.31
2023-07-30T07:49:20.310Z,85.05
2023-07-30T07:51:46.714Z,84.73
2023-07-30T07:54:13.077Z,85.10
2023-07-30T07:56:39.433Z,85.14
2023-07-30T07:59:05.888Z,84.18
2023-07-30T08:01:32.410Z,84.04
2023-07-30T08:03:59.410Z,83.79
2023-07-30T08:06:25.925Z,84.49
2023-07-30T08:08:52.271Z,84.63
2023-07-30T08:11:18.660Z,84.20
2023-07-30T08:13:45.095Z,84.53
2023-07-30T08:16:11.478Z,84.42
2023-07-30T08:18:37.887Z,84.12
2023-07-30T08:21:04.502Z,83.36
2023-07-30T08:23:30.878Z,83.76
2023-07-30T08:25:57.257Z,83.99
2023-07-30T08:28:23.821Z,83.38
2023-07-30T08:30:50.222Z,83.66
2023-07-30T08:33:16.614Z,83.41
2023-07-30T08:35:42.990Z,82.24
2023-07-30T08:38:09.434Z,83.64
2023-07-30T08:40:35.960Z,83.25
2023-07-30T08:43:04.025Z,83.16
2023-07-30T08:45:30.451Z,83.67
2023-07-30T08:47:56.867Z,84.09
2023-07-30T08:50:23.913Z,84.50
2023-07-30T08:52:50.941Z,85.02
2023-07-30T08:55:18.324Z,83.44
2023-07-30T08:57:45.878Z,84.05
2023-07-30T09:00:15.755Z,84.74
2023-07-30T09:02:54.345Z,84.50
2023-07-30T09:05:21.961Z,84.29
2023-07-30T09:07:48.454Z,84.18
2023-07-30T09:10:15.235Z,83.94
2023-07-30T09:13:01.532Z,83.10
2023-07-30T09:15:38.967Z,82.38
2023-07-30T09:18:06.763Z,82.63
2023-07-30T09:20:41.074Z,82.81
2023-07-30T09:23:08.504Z,82.61
2023-07-30T09:25:36.152Z,82.29
2023-07-30T09:28:03.050Z,81.52
2023-07-30T09:30:29.594Z,80.66
2023-07-30T09:32:58.181Z,80.18
2023-07-30T09:35:26.148Z,80.31
2023-07-30T09:38:01.228Z,79.06
2023-07-30T09:40:35.910Z,78.38
2023-07-30T09:43:04.339Z,78.36
2023-07-30T09:45:35.021Z,76.84
2023-07-30T09:48:04.162Z,77.21
2023-07-30T09:50:31.067Z,76.47
2023-07-30T09:52:59.937Z,76.20
2023-07-30T09:55:26.382Z,75.81
2023-07-30T09:57:52.803Z,74.77
2023-07-30T10:00:19.496Z,75.68
2023-07-30T10:02:51.099Z,76.17
2023-07-30T10:05:19.766Z,75.07
2023-07-30T10:08:04.578Z,74.01
2023-07-30T10:10:32.110Z,73.36
2023-07-30T10:13:04.359Z,72.44
2023-07-30T10:15:30.821Z,72.58
2023-07-30T10:18:00.015Z,73.08
2023-07-30T10:20:30.080Z,74.28
2023-07-30T10:23:01.102Z,74.96
2023-07-30T10:25:44.439Z,73.29
2023-07-30T10:28:27.897Z,72.53
2023-07-30T10:31:11.352Z,72.01
2023-07-30T10:33:56.220Z,71.50
2023-07-30T10:36:46.140Z,70.61
2023-07-30T10:39:25.630Z,69.73
2023-07-30T10:41:55.438Z,69.50
2023-07-30T10:44:36.244Z,68.19
2023-07-30T10:47:04.897Z,67.61
2023-07-30T10:49:37.406Z,67.58
2023-07-30T10:52:04.023Z,67.70
2023-07-30T10:54:37.626Z,67.02
2023-07-30T10:57:04.839Z,65.63
2023-07-30T10:59:37.478Z,65.92
2023-07-30T11:02:04.885Z,65.58
2023-07-30T11:04:35.904Z,65.92
2023-07-30T11:07:04.148Z,65.31
2023-07-30T11:09:30.525Z,64.63
2023-07-30T11:11:57.068Z,64.32
2023-07-30T11:14:27.074Z,65.34
2023-07-30T11:16:55.580Z,65.71
2023-07-30T11:19:21.988Z,66.76
2023-07-30T11:21:54.741Z,66.14
2023-07-30T11:24:25.150Z,65.63
2023-07-30T11:27:01.937Z,65.78
2023-07-30T11:29:29.205Z,65.89
2023-07-30T11:32:00.605Z,66.05
2023-07-30T11:34:28.181Z,66.08
2023-07-30T11:36:55.421Z,65.79
2023-07-30T11:39:22.585Z,66.30
2023-07-30T11:41:49.169Z,67.39
2023-07-30T11:44:41.010Z,66.03
2023-07-30T11:47:08.553Z,65.03
2023-07-30T11:49:35.223Z,63.90
2023-07-30T11:52:09.513Z,64.22
2023-07-30T11:54:36.398Z,64.18
2023-07-30T11:57:02.830Z,64.49
2023-07-30T11:59:31.308Z,64.07
2023-07-30T12:01:58.454Z,63.46
2023-07-30T12:04:25.788Z,63.94
2023-07-30T12:06:54.609Z,63.40
2023-07-30T12:09:24.090Z,64.54
2023-07-30T12:11:54.168Z,64.40
2023-07-30T12:14:23.551Z,63.97
2023-07-30T12:16:49.890Z,63.15
2023-07-30T12:19:16.371Z,63.51
2023-07-30T12:21:42.965Z,63.17
2023-07-30T12:24:09.481Z,63.48
2023-07-30T12:26:36.966Z,63.67
2023-07-30T12:29:03.385Z,63.77
2023-07-30T12:31:29.788Z,64.14
2023-07-30T12:33:56.544Z,64.85
2023-07-30T12:36:22.956Z,65.75
2023-07-30T12:38:49.373Z,66.77
2023-07-30T12:41:15.812Z,66.60
2023-07-30T12:43:42.146Z,67.69
2023-07-30T12:46:08.607Z,67.21
2023-07-30T12:48:35.141Z,67.20
2023-07-30T12:51:01.492Z,67.93
2023-07-30T12:53:27.904Z,66.75
2023-07-30T12:55:54.583Z,66.64
2023-07-30T12:58:20.948Z,67.38
2023-07-30T13:00:47.327Z,67.15
2023-07-30T13:03:13.892Z,66.36
2023-07-30T13:05:40.439Z,67.44
2023-07-30T13:08:06.812Z,67.28
2023-07-30T13:10:33.293Z,66.83
2023-07-30T13:12:59.759Z,67.35
2023-07-30T13:15:26.143Z,67.46
2023-07-30T13:17:52.613Z,67.53
2023-07-30T13:20:20.362Z,67.95
2023-07-30T13:22:47.126Z,67.86
2023-07-30T13:25:13.570Z,69.08
2023-07-30T13:27:39.965Z,68.94
2023-07-30T13:30:07.253Z,68.74
2023-07-30T13:32:33.801Z,68.11
2023-07-30T13:35:00.203Z,67.79
2023-07-30T13:37:26.627Z,68.17
2023-07-30T13:39:52.966Z,67.06
2023-07-30T13:42:19.421Z,66.90
2023-07-30T13:44:45.930Z,66.88
2023-07-30T13:47:14.238Z,65.14
2023-07-30T13:49:41.600Z,64.59
2023-07-30T13:52:08.116Z,63.57
2023-07-30T13:54:34.498Z,62.92
2023-07-30T13:57:04.294Z,62.28
2023-07-30T13:59:30.767Z,62.37
2023-07-30T14:01:57.238Z,62.16
2023-07-30T14:04:23.635Z,62.22
2023-07-30T14:06:50.089Z,62.37
2023-07-30T14:09:17.294Z,62.54
2023-07-30T14:11:46.687Z,63.49
2023-07-30T14:14:13.246Z,63.60
2023-07-30T14:16:39.656Z,63.60
2023-07-30T14:19:06.059Z,63.25
2023-07-30T14:21:32.498Z,63.02
2023-07-30T14:23:58.923Z,61.20
2023-07-30T14:26:25.269Z,60.21
2023-07-30T14:28:51.755Z,59.87
2023-07-30T14:31:18.094Z,59.36
2023-07-30T14:33:44.492Z,59.42
2023-07-30T14:36:12.870Z,59.61
2023-07-30T14:38:39.576Z,58.44
2023-07-30T14:41:06.852Z,58.50
2023-07-30T14:43:33.374Z,57.62
2023-07-30T14:45:59.890Z,56.81
2023-07-30T14:48:26.642Z,56.71
2023-07-30T14:50:53.085Z,56.94
2023-07-30T14:53:19.461Z,55.97
2023-07-30T14:55:45.882Z,56.78
2023-07-30T14:58:12.567Z,56.12
2023-07-30T15:00:38.929Z,55.29
2023-07-30T15:03:05.767Z,55.92
2023-07-30T15:05:33.973Z,55.63
2023-07-30T15:08:00.594Z,55.46
2023-07-30T15:10:27.069Z,55.54
2023-07-30T15:12:53.517Z,55.89
2023-07-30T15:15:19.909Z,55.71
2023-07-30T15:17:46.403Z,56.69
2023-07-30T15:20:12.870Z,56.97
2023-07-30T15:22:39.310Z,55.75
2023-07-30T15:25:06.687Z,56.00
2023-07-30T15:27:33.125Z,55.60
2023-07-30T15:29:59.656Z,55.60
2023-07-30T15:32:30.820Z,55.27
2023-07-30T15:34:57.749Z,55.21
2023-07-30T15:37:24.338Z,55.28
2023-07-30T15:39:50.767Z,56.45
2023-07-30T15:42:17.697Z,56.29
2023-07-30T15:44:44.256Z,56.24
2023-07-30T15:47:12.282Z,56.41
2023-07-30T15:49:38.715Z,55.77
2023-07-30T15:52:05.606Z,56.15
2023-07-30T15:54:33.940Z,56.11
2023-07-30T15:57:00.579Z,55.88
2023-07-30T15:59:26.989Z,56.67
2023-07-30T16:01:53.458Z,55.89
2023-07-30T16:04:19.825Z,56.15
2023-07-30T16:06:46.166Z,55.42
2023-07-30T16:09:12.554Z,55.46
2023-07-30T16:11:39.790Z,55.20
2023-07-30T16:14:06.171Z,55.50
2023-07-30T16:16:32.640Z,55.54
2023-07-30T16:19:01.710Z,55.07
2023-07-30T16:21:28.045Z,55.61
2023-07-30T16:23:54.456Z,55.31
2023-07-30T16:26:20.805Z,55.40
2023-07-30T16:28:47.169Z,55.69
2023-07-30T16:31:13.602Z,56.00
2023-07-30T16:33:40.030Z,56.40
2023-07-30T16:36:07.959Z,56.02
2023-07-30T16:38:35.872Z,55.95
2023-07-30T16:41:02.393Z,56.38
2023-07-30T16:43:28.757Z,55.91
2023-07-30T16:46:00.065Z,56.07
2023-07-30T16:48:26.522Z,56.59
2023-07-30T16:50:52.859Z,56.51
2023-07-30T16:53:19.203Z,56.11
2023-07-30T16:55:45.540Z,56.86
2023-07-30T16:58:11.996Z,58.05
2023-07-30T17:00:38.799Z,58.20
2023-07-30T17:03:07.976Z,57.08
2023-07-30T17:05:34.638Z,56.68
2023-07-30T17:08:01.104Z,56.35
2023-07-30T17:10:27.571Z,56.69
2023-07-30T17:12:54.215Z,56.22
2023-07-30T17:15:20.691Z,56.06
2023-07-30T17:17:50.256Z,55.77
2023-07-30T17:20:16.815Z,56.00
2023-07-30T17:22:43.266Z,56.38
2023-07-30T17:25:09.948Z,56.12
2023-07-30T17:27:36.563Z,56.38
2023-07-30T17:30:03.011Z,55.38
2023-07-30T17:32:29.556Z,55.00
2023-07-30T17:34:56.425Z,54.60
2023-07-30T17:37:22.892Z,55.44
2023-07-30T17:39:49.312Z,55.36
2023-07-30T17:42:15.799Z,55.44
2023-07-30T17:44:42.460Z,55.21
2023-07-30T17:47:08.890Z,55.29
2023-07-30T17:49:35.395Z,55.08
2023-07-30T17:52:02.317Z,55.37
2023-07-30T17:54:28.686Z,55.35
2023-07-30T17:56:55.067Z,55.22
2023-07-30T17:59:22.862Z,54.68
2023-07-30T18:01:49.393Z,55.06
2023-07-30T18:04:15.780Z,55.37
2023-07-30T18:06:42.154Z,55.64
2023-07-30T18:09:08.541Z,57.12
2023-07-30T18:11:34.972Z,57.90
2023-07-30T18:14:01.349Z,58.75
2023-07-30T18:16:27.734Z,60.47
2023-07-30T18:18:54.201Z,62.22
2023-07-30T18:21:20.566Z,64.18
2023-07-30T18:23:47.302Z,65.99
2023-07-30T18:26:13.869Z,67.26
2023-07-30T18:28:40.339Z,68.74
2023-07-30T18:31:06.857Z,69.58
2023-07-30T18:33:33.420Z,71.13
2023-07-30T18:36:00.384Z,72.00
2023-07-30T18:38:27.585Z,72.89
2023-07-30T18:40:54.014Z,73.87
2023-07-30T18:43:20.927Z,75.07
2023-07-30T18:45:52.887Z,76.06
2023-07-30T18:48:19.590Z,76.71
2023-07-30T18:50:50.976Z,77.87
2023-07-30T18:53:17.511Z,77.57
2023-07-30T18:55:43.993Z,77.74
2023-07-30T18:58:10.813Z,79.15
2023-07-30T19:00:37.190Z,80.24
2023-07-30T19:03:03.712Z,80.95
2023-07-30T19:05:30.239Z,81.05
2023-07-30T19:07:58.898Z,81.53
2023-07-30T19:10:25.289Z,82.22
2023-07-30T19:12:51.651Z,82.59
2023-07-30T19:15:18.051Z,82.93
2023-07-30T19:17:44.475Z,83.04
2023-07-30T19:20:11.565Z,83.54
2023-07-30T19:22:37.914Z,83.86
2023-07-30T19:25:04.763Z,84.36
2023-07-30T19:27:31.168Z,84.46
2023-07-30T19:29:57.576Z,85.06
2023-07-30T19:32:24.019Z,85.81
2023-07-30T19:34:50.359Z,85.96
2023-07-30T19:37:16.692Z,87.24
2023-07-30T19:39:43.239Z,87.90
2023-07-30T19:42:09.886Z,88.90
2023-07-30T19:44:36.410Z,89.57
2023-07-30T19:47:02.931Z,90.67
2023-07-30T19:49:29.678Z,91.66
2023-07-30T19:51:56.501Z,92.88
2023-07-30T19:54:23.408Z,93.23
2023-07-30T19:56:49.840Z,94.43
2023-07-30T19:59:16.244Z,95.12
2023-07-30T20:01:42.732Z,95.49
2023-07-30T20:04:09.112Z,96.14
2023-07-30T20:06:36.269Z,97.30
2023-07-30T20:09:03.555Z,97.64
2023-07-30T20:11:29.928Z,98.17
2023-07-30T20:13:56.307Z,98.96
2023-07-30T20:16:22.762Z,99.58
2023-07-30T20:18:49.131Z,99.43
2023-07-30T20:21:16.298Z,99.81
2023-07-30T20:23:42.736Z,99.98
2023-07-30T20:26:16.839Z,100.00
2023-07-30T20:28:45.052Z,100.00
2023-07-30T20:31:11.682Z,100.00
2023-07-30T20:33:38.129Z,100.00
2023-07-30T20:36:05.343Z,100.00
2023-07-30T20:38:31.719Z,100.00
2023-07-30T20:40:59.743Z,100.00
2023-07-30T20:43:27.204Z,100.00
2023-07-30T20:45:53.685Z,100.00
2023-07-30T20:48:20.122Z,100.00
2023-07-30T20:50:46.969Z,100.00
2023-07-30T20:53:15.220Z,100.00
2023-07-30T20:55:42.242Z,100.00
2023-07-30T20:58:08.660Z,100.00
2023-07-30T21:00:35.013Z,100.00
2023-07-30T21:03:01.463Z,100.00
2023-07-30T21:05:27.944Z,100.00
2023-07-30T21:07:54.282Z,100.00
2023-07-30T21:10:20.645Z,100.00
2023-07-30T21:12:47.156Z,100.00
2023-07-30T21:15:13.507Z,100.00
2023-07-30T21:17:40.002Z,100.00
2023-07-30T21:20:07.146Z,100.00
2023-07-30T21:22:33.493Z,100.00
2023-07-30T21:24:59.957Z,100.00
2023-07-30T21:27:26.457Z,100.00
2023-07-30T21:29:52.940Z,100.00
2023-07-30T21:32:19.393Z,100.00
2023-07-30T21:34:45.964Z,100.00
2023-07-30T21:37:12.369Z,100.00
2023-07-30T21:39:38.813Z,100.00
2023-07-30T21:42:05.452Z,100.00
2023-07-30T21:44:33.858Z,100.00
2023-07-30T21:47:00.426Z,100.00
2023-07-30T21:49:26.877Z,100.00
2023-07-30T21:51:55.968Z,100.00
2023-07-30T21:54:22.378Z,100.00
2023-07-30T21:56:49.048Z,100.00
2023-07-30T21:59:15.424Z,100.00
2023-07-30T22:01:41.798Z,100.00
2023-07-30T22:04:08.175Z,100.00
2023-07-30T22:06:34.542Z,100.00
2023-07-30T22:09:01.127Z,100.00
2023-07-30T22:11:28.062Z,100.00
2023-07-30T22:13:54.485Z,100.00
2023-07-30T22:16:20.982Z,100.00
2023-07-30T22:18:47.427Z,100.00
2023-07-30T22:21:14.809Z,100.00
2023-07-30T22:23:41.200Z,100.00
2023-07-30T22:26:07.584Z,100.00
2023-07-30T22:28:33.972Z,100.00
2023-07-30T22:31:00.392Z,100.00
2023-07-30T22:33:26.939Z,100.00
2023-07-30T22:35:54.906Z,100.00
2023-07-30T22:38:21.513Z,100.00
2023-07-30T22:40:48.002Z,100.00
2023-07-30T22:43:14.333Z,100.00
2023-07-30T22:45:40.724Z,100.00
2023-07-30T22:48:07.262Z,100.00
2023-07-30T22:50:33.622Z,100.00
2023-07-30T22:53:00.026Z,100.00
2023-07-30T22:55:26.461Z,100.00
2023-07-30T22:57:52.824Z,100.00
2023-07-30T23:00:19.236Z,100.00
2023-07-30T23:02:45.708Z,100.00
2023-07-30T23:05:12.136Z,100.00
2023-07-30T23:07:38.485Z,100.00
2023-07-30T23:10:05.385Z,100.00
2023-07-30T23:12:31.738Z,100.00
2023-07-30T23:14:58.086Z,100.00
2023-07-30T23:17:24.551Z,100.00
2023-07-30T23:19:51.009Z,100.00
2023-07-30T23:22:17.357Z,100.00
2023-07-30T23:24:43.965Z,100.00
2023-07-30T23:27:10.293Z,100.00
2023-07-30T23:29:36.670Z,100.00
2023-07-30T23:32:03.194Z,100.00
2023-07-30T23:34:29.551Z,100.00
2023-07-30T23:36:55.942Z,100.00
2023-07-30T23:39:22.599Z,100.00
2023-07-30T23:41:49.033Z,100.00
2023-07-30T23:44:15.438Z,100.00
2023-07-30T23:46:42.082Z,100.00
2023-07-30T23:49:08.811Z,100.00
2023-07-30T23:51:35.245Z,100.00
2023-07-30T23:54:01.641Z,100.00
2023-07-30T23:56:28.116Z,100.00
2023-07-30T23:58:54.480Z,100.00
